sensor_id;sensor_type;location;lat;lon;timestamp;P1;durP1;ratioP1;P2;durP2;ratioP2
59336;SDS011;45115;52.002;4.686;2023-02-15T00:01:24;49.55;;;26.02;;
59336;SDS011;45115;52.002;4.686;2023-02-15T00:03:52;48.58;;;25.98;;
59336;SDS011;45115;52.002;4.686;2023-02-15T00:06:19;47.45;;;26.45;;
59336;SDS011;45115;52.002;4.686;2023-02-15T00:08:45;49.92;;;27.17;;
59336;SDS011;45115;52.002;4.686;2023-02-15T00:11:12;57.00;;;29.38;;
59336;SDS011;45115;52.002;4.686;2023-02-15T00:13:39;54.58;;;28.38;;
59336;SDS011;45115;52.002;4.686;2023-02-15T00:16:08;54.97;;;28.50;;
59336;SDS011;45115;52.002;4.686;2023-02-15T00:18:34;51.65;;;27.98;;
59336;SDS011;45115;52.002;4.686;2023-02-15T00:21:04;57.40;;;31.88;;
59336;SDS011;45115;52.002;4.686;2023-02-15T00:23:33;58.65;;;31.48;;
59336;SDS011;45115;52.002;4.686;2023-02-15T00:26:04;62.30;;;33.58;;
59336;SDS011;45115;52.002;4.686;2023-02-15T00:28:31;59.83;;;32.45;;
59336;SDS011;45115;52.002;4.686;2023-02-15T00:31:02;65.95;;;34.35;;
59336;SDS011;45115;52.002;4.686;2023-02-15T00:33:28;61.33;;;34.38;;
59336;SDS011;45115;52.002;4.686;2023-02-15T00:35:55;71.38;;;37.40;;
59336;SDS011;45115;52.002;4.686;2023-02-15T00:38:23;65.47;;;37.28;;
59336;SDS011;45115;52.002;4.686;2023-02-15T00:40:51;69.40;;;38.03;;
59336;SDS011;45115;52.002;4.686;2023-02-15T00:43:18;67.25;;;35.92;;
59336;SDS011;45115;52.002;4.686;2023-02-15T00:45:44;68.95;;;37.03;;
59336;SDS011;45115;52.002;4.686;2023-02-15T00:48:11;67.40;;;36.55;;
59336;SDS011;45115;52.002;4.686;2023-02-15T00:50:37;68.60;;;35.20;;
59336;SDS011;45115;52.002;4.686;2023-02-15T00:53:10;69.75;;;36.78;;
59336;SDS011;45115;52.002;4.686;2023-02-15T00:55:38;62.95;;;35.92;;
59336;SDS011;45115;52.002;4.686;2023-02-15T00:58:05;77.43;;;37.15;;
59336;SDS011;45115;52.002;4.686;2023-02-15T01:00:31;74.18;;;37.55;;
59336;SDS011;45115;52.002;4.686;2023-02-15T01:02:58;68.13;;;36.42;;
59336;SDS011;45115;52.002;4.686;2023-02-15T01:05:24;68.70;;;37.03;;
59336;SDS011;45115;52.002;4.686;2023-02-15T01:07:51;63.08;;;34.50;;
59336;SDS011;45115;52.002;4.686;2023-02-15T01:10:17;62.33;;;33.67;;
59336;SDS011;45115;52.002;4.686;2023-02-15T01:12:45;68.47;;;35.95;;
59336;SDS011;45115;52.002;4.686;2023-02-15T01:15:11;72.80;;;36.67;;
59336;SDS011;45115;52.002;4.686;2023-02-15T01:17:38;67.60;;;36.10;;
59336;SDS011;45115;52.002;4.686;2023-02-15T01:20:05;67.78;;;36.30;;
59336;SDS011;45115;52.002;4.686;2023-02-15T01:22:32;74.07;;;39.00;;
59336;SDS011;45115;52.002;4.686;2023-02-15T01:25:00;79.30;;;40.35;;
59336;SDS011;45115;52.002;4.686;2023-02-15T01:27:28;74.90;;;39.63;;
59336;SDS011;45115;52.002;4.686;2023-02-15T01:29:57;79.95;;;41.95;;
59336;SDS011;45115;52.002;4.686;2023-02-15T01:32:23;71.07;;;39.75;;
59336;SDS011;45115;52.002;4.686;2023-02-15T01:34:50;75.75;;;38.80;;
59336;SDS011;45115;52.002;4.686;2023-02-15T01:37:25;79.03;;;40.22;;
59336;SDS011;45115;52.002;4.686;2023-02-15T01:39:52;80.38;;;39.80;;
59336;SDS011;45115;52.002;4.686;2023-02-15T01:42:20;71.30;;;38.65;;
59336;SDS011;45115;52.002;4.686;2023-02-15T01:44:48;83.93;;;40.00;;
59336;SDS011;45115;52.002;4.686;2023-02-15T01:47:26;71.38;;;37.85;;
59336;SDS011;45115;52.002;4.686;2023-02-15T01:49:58;70.65;;;39.95;;
59336;SDS011;45115;52.002;4.686;2023-02-15T01:52:26;76.10;;;39.67;;
59336;SDS011;45115;52.002;4.686;2023-02-15T01:54:52;72.72;;;38.88;;
59336;SDS011;45115;52.002;4.686;2023-02-15T01:57:20;73.60;;;39.20;;
59336;SDS011;45115;52.002;4.686;2023-02-15T01:59:49;75.45;;;39.75;;
59336;SDS011;45115;52.002;4.686;2023-02-15T02:02:18;76.53;;;38.40;;
59336;SDS011;45115;52.002;4.686;2023-02-15T02:04:48;72.25;;;37.85;;
59336;SDS011;45115;52.002;4.686;2023-02-15T02:07:18;72.95;;;37.50;;
59336;SDS011;45115;52.002;4.686;2023-02-15T02:09:45;73.03;;;37.55;;
59336;SDS011;45115;52.002;4.686;2023-02-15T02:12:12;74.35;;;37.95;;
59336;SDS011;45115;52.002;4.686;2023-02-15T02:14:39;72.03;;;36.65;;
59336;SDS011;45115;52.002;4.686;2023-02-15T02:17:07;76.63;;;41.08;;
59336;SDS011;45115;52.002;4.686;2023-02-15T02:22:43;71.07;;;37.38;;
59336;SDS011;45115;52.002;4.686;2023-02-15T02:25:22;70.20;;;39.63;;
59336;SDS011;45115;52.002;4.686;2023-02-15T02:27:56;74.50;;;37.85;;
59336;SDS011;45115;52.002;4.686;2023-02-15T02:33:26;70.25;;;38.95;;
59336;SDS011;45115;52.002;4.686;2023-02-15T02:36:00;69.38;;;37.92;;
59336;SDS011;45115;52.002;4.686;2023-02-15T02:38:32;74.07;;;38.92;;
59336;SDS011;45115;52.002;4.686;2023-02-15T02:41:06;70.05;;;38.00;;
59336;SDS011;45115;52.002;4.686;2023-02-15T02:43:35;72.32;;;36.35;;
59336;SDS011;45115;52.002;4.686;2023-02-15T02:46:05;79.43;;;40.25;;
59336;SDS011;45115;52.002;4.686;2023-02-15T02:48:34;75.32;;;38.78;;
59336;SDS011;45115;52.002;4.686;2023-02-15T02:51:00;81.82;;;38.08;;
59336;SDS011;45115;52.002;4.686;2023-02-15T02:53:27;79.65;;;40.10;;
59336;SDS011;45115;52.002;4.686;2023-02-15T02:55:56;73.90;;;37.22;;
59336;SDS011;45115;52.002;4.686;2023-02-15T02:58:25;72.22;;;37.58;;
59336;SDS011;45115;52.002;4.686;2023-02-15T03:00:53;80.25;;;40.05;;
59336;SDS011;45115;52.002;4.686;2023-02-15T03:03:22;66.22;;;37.53;;
59336;SDS011;45115;52.002;4.686;2023-02-15T03:05:52;78.20;;;37.53;;
59336;SDS011;45115;52.002;4.686;2023-02-15T03:08:19;67.18;;;35.42;;
59336;SDS011;45115;52.002;4.686;2023-02-15T03:10:52;68.07;;;36.55;;
59336;SDS011;45115;52.002;4.686;2023-02-15T03:13:19;75.05;;;37.47;;
59336;SDS011;45115;52.002;4.686;2023-02-15T03:15:47;64.95;;;35.03;;
59336;SDS011;45115;52.002;4.686;2023-02-15T03:18:34;66.13;;;34.03;;
59336;SDS011;45115;52.002;4.686;2023-02-15T03:21:04;67.47;;;34.60;;
59336;SDS011;45115;52.002;4.686;2023-02-15T03:23:34;61.42;;;34.03;;
59336;SDS011;45115;52.002;4.686;2023-02-15T03:26:05;76.30;;;36.00;;
59336;SDS011;45115;52.002;4.686;2023-02-15T03:28:35;65.93;;;34.75;;
59336;SDS011;45115;52.002;4.686;2023-02-15T03:31:02;61.83;;;31.75;;
59336;SDS011;45115;52.002;4.686;2023-02-15T03:33:30;66.65;;;33.17;;
59336;SDS011;45115;52.002;4.686;2023-02-15T03:35:58;59.80;;;31.77;;
59336;SDS011;45115;52.002;4.686;2023-02-15T03:38:29;64.90;;;33.00;;
59336;SDS011;45115;52.002;4.686;2023-02-15T03:40:57;71.45;;;35.47;;
59336;SDS011;45115;52.002;4.686;2023-02-15T03:43:38;71.40;;;36.25;;
59336;SDS011;45115;52.002;4.686;2023-02-15T03:46:08;72.25;;;38.58;;
59336;SDS011;45115;52.002;4.686;2023-02-15T03:48:35;73.28;;;36.38;;
59336;SDS011;45115;52.002;4.686;2023-02-15T03:51:04;77.90;;;39.22;;
59336;SDS011;45115;52.002;4.686;2023-02-15T03:53:50;77.22;;;38.78;;
59336;SDS011;45115;52.002;4.686;2023-02-15T03:56:17;79.60;;;38.60;;
59336;SDS011;45115;52.002;4.686;2023-02-15T03:58:44;82.63;;;40.40;;
59336;SDS011;45115;52.002;4.686;2023-02-15T04:01:31;88.40;;;41.38;;
59336;SDS011;45115;52.002;4.686;2023-02-15T04:04:23;78.75;;;39.20;;
59336;SDS011;45115;52.002;4.686;2023-02-15T04:06:51;83.68;;;41.35;;
59336;SDS011;45115;52.002;4.686;2023-02-15T04:09:18;83.90;;;41.65;;
59336;SDS011;45115;52.002;4.686;2023-02-15T04:12:02;93.20;;;44.97;;
59336;SDS011;45115;52.002;4.686;2023-02-15T04:14:29;90.05;;;43.25;;
59336;SDS011;45115;52.002;4.686;2023-02-15T04:17:13;86.55;;;42.58;;
59336;SDS011;45115;52.002;4.686;2023-02-15T04:19:39;87.70;;;41.90;;
59336;SDS011;45115;52.002;4.686;2023-02-15T04:22:23;107.82;;;44.88;;
59336;SDS011;45115;52.002;4.686;2023-02-15T04:25:08;90.78;;;41.00;;
59336;SDS011;45115;52.002;4.686;2023-02-15T04:27:38;97.15;;;43.88;;
59336;SDS011;45115;52.002;4.686;2023-02-15T04:30:06;92.25;;;44.80;;
59336;SDS011;45115;52.002;4.686;2023-02-15T04:32:33;95.75;;;44.03;;
59336;SDS011;45115;52.002;4.686;2023-02-15T04:35:00;97.18;;;45.38;;
59336;SDS011;45115;52.002;4.686;2023-02-15T04:37:26;95.95;;;42.88;;
59336;SDS011;45115;52.002;4.686;2023-02-15T04:39:53;82.45;;;42.28;;
59336;SDS011;45115;52.002;4.686;2023-02-15T04:42:20;81.70;;;42.45;;
59336;SDS011;45115;52.002;4.686;2023-02-15T04:44:47;95.03;;;42.53;;
59336;SDS011;45115;52.002;4.686;2023-02-15T04:47:13;74.43;;;39.90;;
59336;SDS011;45115;52.002;4.686;2023-02-15T04:49:40;80.82;;;39.40;;
59336;SDS011;45115;52.002;4.686;2023-02-15T04:52:06;77.63;;;37.67;;
59336;SDS011;45115;52.002;4.686;2023-02-15T04:54:32;74.20;;;37.92;;
59336;SDS011;45115;52.002;4.686;2023-02-15T04:56:59;71.80;;;37.60;;
59336;SDS011;45115;52.002;4.686;2023-02-15T04:59:27;70.30;;;35.72;;
59336;SDS011;45115;52.002;4.686;2023-02-15T05:01:53;63.58;;;33.88;;
59336;SDS011;45115;52.002;4.686;2023-02-15T05:04:20;68.30;;;35.55;;
59336;SDS011;45115;52.002;4.686;2023-02-15T05:06:46;66.70;;;34.55;;
59336;SDS011;45115;52.002;4.686;2023-02-15T05:09:14;61.53;;;33.70;;
59336;SDS011;45115;52.002;4.686;2023-02-15T05:11:41;61.45;;;33.35;;
59336;SDS011;45115;52.002;4.686;2023-02-15T05:14:08;62.13;;;35.13;;
59336;SDS011;45115;52.002;4.686;2023-02-15T05:16:35;60.38;;;33.10;;
59336;SDS011;45115;52.002;4.686;2023-02-15T05:19:04;65.57;;;34.67;;
59336;SDS011;45115;52.002;4.686;2023-02-15T05:21:31;65.03;;;35.90;;
59336;SDS011;45115;52.002;4.686;2023-02-15T05:23:57;66.82;;;37.50;;
59336;SDS011;45115;52.002;4.686;2023-02-15T05:26:24;74.45;;;36.60;;
59336;SDS011;45115;52.002;4.686;2023-02-15T05:29:08;72.78;;;35.55;;
59336;SDS011;45115;52.002;4.686;2023-02-15T05:31:36;61.83;;;34.05;;
59336;SDS011;45115;52.002;4.686;2023-02-15T05:34:03;68.57;;;36.25;;
59336;SDS011;45115;52.002;4.686;2023-02-15T05:36:29;66.45;;;36.13;;
59336;SDS011;45115;52.002;4.686;2023-02-15T05:38:56;70.88;;;37.03;;
59336;SDS011;45115;52.002;4.686;2023-02-15T05:41:22;68.07;;;35.70;;
59336;SDS011;45115;52.002;4.686;2023-02-15T05:43:49;60.88;;;33.33;;
59336;SDS011;45115;52.002;4.686;2023-02-15T05:46:15;65.35;;;35.25;;
59336;SDS011;45115;52.002;4.686;2023-02-15T05:48:43;63.72;;;33.88;;
59336;SDS011;45115;52.002;4.686;2023-02-15T05:51:10;69.78;;;35.95;;
59336;SDS011;45115;52.002;4.686;2023-02-15T05:53:39;75.70;;;35.85;;
59336;SDS011;45115;52.002;4.686;2023-02-15T05:56:06;81.25;;;36.88;;
59336;SDS011;45115;52.002;4.686;2023-02-15T05:58:34;85.05;;;39.20;;
59336;SDS011;45115;52.002;4.686;2023-02-15T06:01:06;73.22;;;35.63;;
59336;SDS011;45115;52.002;4.686;2023-02-15T06:03:33;71.40;;;37.03;;
59336;SDS011;45115;52.002;4.686;2023-02-15T06:06:01;81.00;;;37.25;;
59336;SDS011;45115;52.002;4.686;2023-02-15T06:08:29;77.30;;;37.40;;
59336;SDS011;45115;52.002;4.686;2023-02-15T06:10:56;76.38;;;38.85;;
59336;SDS011;45115;52.002;4.686;2023-02-15T06:13:22;75.50;;;36.75;;
59336;SDS011;45115;52.002;4.686;2023-02-15T06:15:49;67.28;;;35.03;;
59336;SDS011;45115;52.002;4.686;2023-02-15T06:18:16;73.95;;;36.90;;
59336;SDS011;45115;52.002;4.686;2023-02-15T06:20:44;67.32;;;33.55;;
59336;SDS011;45115;52.002;4.686;2023-02-15T06:23:12;78.20;;;38.03;;
59336;SDS011;45115;52.002;4.686;2023-02-15T06:25:39;75.75;;;36.58;;
59336;SDS011;45115;52.002;4.686;2023-02-15T06:28:05;76.85;;;37.15;;
59336;SDS011;45115;52.002;4.686;2023-02-15T06:30:32;68.47;;;33.22;;
59336;SDS011;45115;52.002;4.686;2023-02-15T06:32:58;78.43;;;37.80;;
59336;SDS011;45115;52.002;4.686;2023-02-15T06:35:25;76.15;;;37.05;;
59336;SDS011;45115;52.002;4.686;2023-02-15T06:38:00;72.60;;;35.60;;
59336;SDS011;45115;52.002;4.686;2023-02-15T06:40:27;66.10;;;35.47;;
59336;SDS011;45115;52.002;4.686;2023-02-15T06:42:54;71.93;;;35.65;;
59336;SDS011;45115;52.002;4.686;2023-02-15T06:45:20;73.00;;;37.03;;
59336;SDS011;45115;52.002;4.686;2023-02-15T06:47:47;67.85;;;36.08;;
59336;SDS011;45115;52.002;4.686;2023-02-15T06:50:13;71.95;;;36.78;;
59336;SDS011;45115;52.002;4.686;2023-02-15T06:52:40;68.82;;;36.22;;
59336;SDS011;45115;52.002;4.686;2023-02-15T06:55:06;72.55;;;38.47;;
59336;SDS011;45115;52.002;4.686;2023-02-15T06:57:34;83.57;;;38.28;;
59336;SDS011;45115;52.002;4.686;2023-02-15T07:00:01;73.20;;;36.45;;
59336;SDS011;45115;52.002;4.686;2023-02-15T07:02:29;77.85;;;37.05;;
59336;SDS011;45115;52.002;4.686;2023-02-15T07:04:56;73.95;;;36.60;;
59336;SDS011;45115;52.002;4.686;2023-02-15T07:07:23;83.68;;;37.58;;
59336;SDS011;45115;52.002;4.686;2023-02-15T07:09:49;84.10;;;38.47;;
59336;SDS011;45115;52.002;4.686;2023-02-15T07:12:16;79.78;;;36.95;;
59336;SDS011;45115;52.002;4.686;2023-02-15T07:15:01;71.70;;;37.85;;
59336;SDS011;45115;52.002;4.686;2023-02-15T07:17:29;78.22;;;40.35;;
59336;SDS011;45115;52.002;4.686;2023-02-15T07:19:56;76.88;;;37.33;;
59336;SDS011;45115;52.002;4.686;2023-02-15T07:22:23;73.07;;;36.60;;
59336;SDS011;45115;52.002;4.686;2023-02-15T07:24:49;71.90;;;37.28;;
59336;SDS011;45115;52.002;4.686;2023-02-15T07:27:19;81.80;;;39.75;;
59336;SDS011;45115;52.002;4.686;2023-02-15T07:29:46;83.95;;;38.95;;
59336;SDS011;45115;52.002;4.686;2023-02-15T07:32:13;77.15;;;37.63;;
59336;SDS011;45115;52.002;4.686;2023-02-15T07:34:40;75.28;;;37.75;;
59336;SDS011;45115;52.002;4.686;2023-02-15T07:37:09;81.57;;;39.35;;
59336;SDS011;45115;52.002;4.686;2023-02-15T07:39:35;81.47;;;40.03;;
59336;SDS011;45115;52.002;4.686;2023-02-15T07:42:02;75.88;;;38.10;;
59336;SDS011;45115;52.002;4.686;2023-02-15T07:44:29;80.60;;;39.25;;
59336;SDS011;45115;52.002;4.686;2023-02-15T07:46:56;72.53;;;38.88;;
59336;SDS011;45115;52.002;4.686;2023-02-15T07:49:24;75.68;;;37.67;;
59336;SDS011;45115;52.002;4.686;2023-02-15T07:51:50;81.50;;;38.90;;
59336;SDS011;45115;52.002;4.686;2023-02-15T07:54:16;83.80;;;39.97;;
59336;SDS011;45115;52.002;4.686;2023-02-15T07:56:43;75.30;;;37.83;;
59336;SDS011;45115;52.002;4.686;2023-02-15T07:59:09;90.00;;;40.40;;
59336;SDS011;45115;52.002;4.686;2023-02-15T08:01:36;80.55;;;41.25;;
59336;SDS011;45115;52.002;4.686;2023-02-15T08:04:03;86.03;;;40.53;;
59336;SDS011;45115;52.002;4.686;2023-02-15T08:06:33;82.05;;;40.83;;
59336;SDS011;45115;52.002;4.686;2023-02-15T08:08:59;80.82;;;40.05;;
59336;SDS011;45115;52.002;4.686;2023-02-15T08:11:26;86.97;;;40.25;;
59336;SDS011;45115;52.002;4.686;2023-02-15T08:13:58;80.32;;;40.63;;
59336;SDS011;45115;52.002;4.686;2023-02-15T08:16:26;72.93;;;40.42;;
59336;SDS011;45115;52.002;4.686;2023-02-15T08:18:53;84.15;;;40.03;;
59336;SDS011;45115;52.002;4.686;2023-02-15T08:21:20;93.22;;;44.30;;
59336;SDS011;45115;52.002;4.686;2023-02-15T08:23:48;85.40;;;41.28;;
59336;SDS011;45115;52.002;4.686;2023-02-15T08:26:15;89.18;;;43.38;;
59336;SDS011;45115;52.002;4.686;2023-02-15T08:28:42;91.78;;;46.40;;
59336;SDS011;45115;52.002;4.686;2023-02-15T08:31:09;86.35;;;44.63;;
59336;SDS011;45115;52.002;4.686;2023-02-15T08:33:37;91.05;;;42.05;;
59336;SDS011;45115;52.002;4.686;2023-02-15T08:36:04;85.10;;;42.60;;
59336;SDS011;45115;52.002;4.686;2023-02-15T08:38:31;87.05;;;43.40;;
59336;SDS011;45115;52.002;4.686;2023-02-15T08:40:59;86.65;;;44.15;;
59336;SDS011;45115;52.002;4.686;2023-02-15T08:43:34;89.82;;;43.03;;
59336;SDS011;45115;52.002;4.686;2023-02-15T08:46:01;94.43;;;43.72;;
59336;SDS011;45115;52.002;4.686;2023-02-15T08:48:27;87.88;;;46.40;;
59336;SDS011;45115;52.002;4.686;2023-02-15T08:50:54;105.53;;;45.58;;
59336;SDS011;45115;52.002;4.686;2023-02-15T08:53:20;92.35;;;47.35;;
59336;SDS011;45115;52.002;4.686;2023-02-15T08:55:46;93.28;;;46.75;;
59336;SDS011;45115;52.002;4.686;2023-02-15T08:58:17;96.15;;;48.05;;
59336;SDS011;45115;52.002;4.686;2023-02-15T09:00:44;92.15;;;43.58;;
59336;SDS011;45115;52.002;4.686;2023-02-15T09:03:10;85.85;;;44.28;;
59336;SDS011;45115;52.002;4.686;2023-02-15T09:05:37;86.90;;;45.95;;
59336;SDS011;45115;52.002;4.686;2023-02-15T09:08:03;81.75;;;41.40;;
59336;SDS011;45115;52.002;4.686;2023-02-15T09:10:30;79.00;;;41.95;;
59336;SDS011;45115;52.002;4.686;2023-02-15T09:12:56;84.10;;;44.25;;
59336;SDS011;45115;52.002;4.686;2023-02-15T09:15:24;84.38;;;44.03;;
59336;SDS011;45115;52.002;4.686;2023-02-15T09:17:50;84.93;;;44.42;;
59336;SDS011;45115;52.002;4.686;2023-02-15T09:20:17;84.90;;;43.53;;
59336;SDS011;45115;52.002;4.686;2023-02-15T09:22:44;80.00;;;43.10;;
59336;SDS011;45115;52.002;4.686;2023-02-15T09:25:10;77.13;;;44.00;;
59336;SDS011;45115;52.002;4.686;2023-02-15T09:27:38;82.50;;;43.75;;
59336;SDS011;45115;52.002;4.686;2023-02-15T09:30:06;73.97;;;41.88;;
59336;SDS011;45115;52.002;4.686;2023-02-15T09:32:34;85.75;;;41.03;;
59336;SDS011;45115;52.002;4.686;2023-02-15T09:35:00;71.30;;;39.70;;
59336;SDS011;45115;52.002;4.686;2023-02-15T09:37:27;82.18;;;41.63;;
59336;SDS011;45115;52.002;4.686;2023-02-15T09:39:53;71.97;;;38.95;;
59336;SDS011;45115;52.002;4.686;2023-02-15T09:45:22;71.78;;;38.60;;
59336;SDS011;45115;52.002;4.686;2023-02-15T09:47:57;72.75;;;38.72;;
59336;SDS011;45115;52.002;4.686;2023-02-15T09:50:28;69.97;;;37.75;;
59336;SDS011;45115;52.002;4.686;2023-02-15T09:53:00;72.68;;;37.97;;
59336;SDS011;45115;52.002;4.686;2023-02-15T09:58:17;66.50;;;37.03;;
59336;SDS011;45115;52.002;4.686;2023-02-15T10:00:48;67.13;;;39.22;;
59336;SDS011;45115;52.002;4.686;2023-02-15T10:03:22;62.28;;;35.10;;
59336;SDS011;45115;52.002;4.686;2023-02-15T10:05:53;62.92;;;36.63;;
59336;SDS011;45115;52.002;4.686;2023-02-15T10:08:27;63.30;;;36.38;;
59336;SDS011;45115;52.002;4.686;2023-02-15T10:11:00;60.50;;;36.13;;
59336;SDS011;45115;52.002;4.686;2023-02-15T10:13:50;62.20;;;34.78;;
59336;SDS011;45115;52.002;4.686;2023-02-15T10:16:22;59.15;;;35.88;;
59336;SDS011;45115;52.002;4.686;2023-02-15T10:18:54;60.67;;;36.27;;
59336;SDS011;45115;52.002;4.686;2023-02-15T10:23:52;61.78;;;35.75;;
59336;SDS011;45115;52.002;4.686;2023-02-15T10:26:21;61.85;;;36.17;;
59336;SDS011;45115;52.002;4.686;2023-02-15T10:28:49;65.28;;;37.17;;
59336;SDS011;45115;52.002;4.686;2023-02-15T10:31:23;58.90;;;35.08;;
59336;SDS011;45115;52.002;4.686;2023-02-15T10:33:54;62.90;;;36.30;;
59336;SDS011;45115;52.002;4.686;2023-02-15T10:36:26;61.35;;;34.85;;
59336;SDS011;45115;52.002;4.686;2023-02-15T10:38:57;63.67;;;34.42;;
59336;SDS011;45115;52.002;4.686;2023-02-15T10:41:30;62.95;;;36.53;;
59336;SDS011;45115;52.002;4.686;2023-02-15T10:44:09;59.80;;;35.85;;
59336;SDS011;45115;52.002;4.686;2023-02-15T10:46:49;61.90;;;36.42;;
59336;SDS011;45115;52.002;4.686;2023-02-15T10:49:25;60.38;;;36.53;;
59336;SDS011;45115;52.002;4.686;2023-02-15T10:51:56;59.88;;;34.45;;
59336;SDS011;45115;52.002;4.686;2023-02-15T10:54:28;60.13;;;34.75;;
59336;SDS011;45115;52.002;4.686;2023-02-15T10:59:25;56.97;;;33.03;;
59336;SDS011;45115;52.002;4.686;2023-02-15T11:01:57;55.08;;;33.90;;
59336;SDS011;45115;52.002;4.686;2023-02-15T11:07:12;58.10;;;31.42;;
59336;SDS011;45115;52.002;4.686;2023-02-15T11:09:41;53.90;;;32.08;;
59336;SDS011;45115;52.002;4.686;2023-02-15T11:12:10;52.28;;;30.88;;
59336;SDS011;45115;52.002;4.686;2023-02-15T11:14:38;53.40;;;33.60;;
59336;SDS011;45115;52.002;4.686;2023-02-15T11:17:08;53.78;;;32.72;;
59336;SDS011;45115;52.002;4.686;2023-02-15T11:19:37;54.47;;;32.42;;
59336;SDS011;45115;52.002;4.686;2023-02-15T11:22:06;55.72;;;31.95;;
59336;SDS011;45115;52.002;4.686;2023-02-15T11:24:36;54.38;;;32.13;;
59336;SDS011;45115;52.002;4.686;2023-02-15T11:27:04;55.47;;;31.67;;
59336;SDS011;45115;52.002;4.686;2023-02-15T11:29:32;54.20;;;32.20;;
59336;SDS011;45115;52.002;4.686;2023-02-15T11:32:00;48.83;;;31.17;;
59336;SDS011;45115;52.002;4.686;2023-02-15T11:34:29;51.67;;;30.63;;
59336;SDS011;45115;52.002;4.686;2023-02-15T11:36:58;60.40;;;32.47;;
59336;SDS011;45115;52.002;4.686;2023-02-15T11:39:26;53.60;;;31.10;;
59336;SDS011;45115;52.002;4.686;2023-02-15T11:41:57;50.88;;;31.13;;
59336;SDS011;45115;52.002;4.686;2023-02-15T11:44:26;52.50;;;30.77;;
59336;SDS011;45115;52.002;4.686;2023-02-15T11:46:53;53.50;;;31.10;;
59336;SDS011;45115;52.002;4.686;2023-02-15T11:49:21;50.92;;;30.10;;
59336;SDS011;45115;52.002;4.686;2023-02-15T11:51:49;50.53;;;30.17;;
59336;SDS011;45115;52.002;4.686;2023-02-15T11:54:17;51.90;;;30.63;;
59336;SDS011;45115;52.002;4.686;2023-02-15T11:56:43;50.85;;;30.25;;
59336;SDS011;45115;52.002;4.686;2023-02-15T11:59:12;48.08;;;30.13;;
59336;SDS011;45115;52.002;4.686;2023-02-15T12:01:43;51.70;;;29.85;;
59336;SDS011;45115;52.002;4.686;2023-02-15T12:04:10;49.25;;;29.20;;
59336;SDS011;45115;52.002;4.686;2023-02-15T12:06:43;49.13;;;31.15;;
59336;SDS011;45115;52.002;4.686;2023-02-15T12:09:14;49.72;;;30.52;;
59336;SDS011;45115;52.002;4.686;2023-02-15T12:11:43;50.47;;;28.73;;
59336;SDS011;45115;52.002;4.686;2023-02-15T12:14:10;54.90;;;28.63;;
59336;SDS011;45115;52.002;4.686;2023-02-15T12:16:42;48.10;;;28.33;;
59336;SDS011;45115;52.002;4.686;2023-02-15T12:19:17;46.95;;;28.05;;
59336;SDS011;45115;52.002;4.686;2023-02-15T12:21:49;48.42;;;27.98;;
59336;SDS011;45115;52.002;4.686;2023-02-15T12:24:16;49.10;;;27.63;;
59336;SDS011;45115;52.002;4.686;2023-02-15T12:26:43;48.95;;;28.05;;
59336;SDS011;45115;52.002;4.686;2023-02-15T12:29:12;47.25;;;27.98;;
59336;SDS011;45115;52.002;4.686;2023-02-15T12:31:43;44.42;;;27.92;;
59336;SDS011;45115;52.002;4.686;2023-02-15T12:34:11;46.33;;;28.63;;
59336;SDS011;45115;52.002;4.686;2023-02-15T12:36:40;44.60;;;26.83;;
59336;SDS011;45115;52.002;4.686;2023-02-15T12:39:20;45.47;;;26.23;;
59336;SDS011;45115;52.002;4.686;2023-02-15T12:41:57;45.10;;;26.13;;
59336;SDS011;45115;52.002;4.686;2023-02-15T12:44:24;49.47;;;29.05;;
59336;SDS011;45115;52.002;4.686;2023-02-15T12:46:57;48.75;;;28.58;;
59336;SDS011;45115;52.002;4.686;2023-02-15T12:49:24;48.72;;;28.35;;
59336;SDS011;45115;52.002;4.686;2023-02-15T12:51:52;46.58;;;28.05;;
59336;SDS011;45115;52.002;4.686;2023-02-15T12:54:27;46.08;;;27.50;;
59336;SDS011;45115;52.002;4.686;2023-02-15T12:56:54;44.47;;;27.63;;
59336;SDS011;45115;52.002;4.686;2023-02-15T12:59:22;45.28;;;27.17;;
59336;SDS011;45115;52.002;4.686;2023-02-15T13:01:50;49.80;;;28.85;;
59336;SDS011;45115;52.002;4.686;2023-02-15T13:04:21;50.03;;;29.30;;
59336;SDS011;45115;52.002;4.686;2023-02-15T13:06:48;45.25;;;26.92;;
59336;SDS011;45115;52.002;4.686;2023-02-15T13:09:17;48.95;;;28.35;;
59336;SDS011;45115;52.002;4.686;2023-02-15T13:11:45;47.33;;;26.92;;
59336;SDS011;45115;52.002;4.686;2023-02-15T13:14:16;47.00;;;27.08;;
59336;SDS011;45115;52.002;4.686;2023-02-15T13:19:10;42.95;;;26.27;;
59336;SDS011;45115;52.002;4.686;2023-02-15T13:21:41;48.13;;;27.98;;
59336;SDS011;45115;52.002;4.686;2023-02-15T13:24:13;44.47;;;25.90;;
59336;SDS011;45115;52.002;4.686;2023-02-15T13:26:41;46.75;;;27.20;;
59336;SDS011;45115;52.002;4.686;2023-02-15T13:29:11;39.35;;;23.55;;
59336;SDS011;45115;52.002;4.686;2023-02-15T13:31:41;39.35;;;23.65;;
59336;SDS011;45115;52.002;4.686;2023-02-15T13:34:09;42.53;;;22.67;;
59336;SDS011;45115;52.002;4.686;2023-02-15T13:36:41;40.25;;;23.20;;
59336;SDS011;45115;52.002;4.686;2023-02-15T13:39:12;42.95;;;22.25;;
59336;SDS011;45115;52.002;4.686;2023-02-15T13:41:50;39.97;;;24.13;;
59336;SDS011;45115;52.002;4.686;2023-02-15T13:44:19;43.97;;;24.63;;
59336;SDS011;45115;52.002;4.686;2023-02-15T13:46:53;43.08;;;25.10;;
59336;SDS011;45115;52.002;4.686;2023-02-15T13:49:26;42.30;;;24.02;;
59336;SDS011;45115;52.002;4.686;2023-02-15T13:51:57;43.85;;;26.08;;
59336;SDS011;45115;52.002;4.686;2023-02-15T13:54:28;45.00;;;25.02;;
59336;SDS011;45115;52.002;4.686;2023-02-15T13:56:59;44.97;;;25.60;;
59336;SDS011;45115;52.002;4.686;2023-02-15T13:59:31;45.40;;;23.83;;
59336;SDS011;45115;52.002;4.686;2023-02-15T14:02:06;42.08;;;25.23;;
59336;SDS011;45115;52.002;4.686;2023-02-15T14:04:42;45.30;;;25.85;;
59336;SDS011;45115;52.002;4.686;2023-02-15T14:07:21;39.72;;;23.40;;
59336;SDS011;45115;52.002;4.686;2023-02-15T14:09:52;46.08;;;25.35;;
59336;SDS011;45115;52.002;4.686;2023-02-15T14:15:08;47.95;;;26.02;;
59336;SDS011;45115;52.002;4.686;2023-02-15T14:17:42;44.35;;;24.38;;
59336;SDS011;45115;52.002;4.686;2023-02-15T14:20:14;44.55;;;25.85;;
59336;SDS011;45115;52.002;4.686;2023-02-15T14:22:45;46.42;;;26.00;;
59336;SDS011;45115;52.002;4.686;2023-02-15T14:25:15;43.95;;;26.05;;
59336;SDS011;45115;52.002;4.686;2023-02-15T14:27:45;45.65;;;26.35;;
59336;SDS011;45115;52.002;4.686;2023-02-15T14:30:16;45.88;;;26.45;;
59336;SDS011;45115;52.002;4.686;2023-02-15T14:32:44;46.03;;;27.17;;
59336;SDS011;45115;52.002;4.686;2023-02-15T14:35:13;45.88;;;27.10;;
59336;SDS011;45115;52.002;4.686;2023-02-15T14:37:41;41.58;;;26.50;;
59336;SDS011;45115;52.002;4.686;2023-02-15T14:40:12;44.50;;;26.75;;
59336;SDS011;45115;52.002;4.686;2023-02-15T14:43:00;50.28;;;28.67;;
59336;SDS011;45115;52.002;4.686;2023-02-15T14:45:33;50.78;;;28.77;;
59336;SDS011;45115;52.002;4.686;2023-02-15T14:48:09;46.67;;;27.73;;
59336;SDS011;45115;52.002;4.686;2023-02-15T14:50:42;52.33;;;29.35;;
59336;SDS011;45115;52.002;4.686;2023-02-15T14:53:32;50.80;;;29.05;;
59336;SDS011;45115;52.002;4.686;2023-02-15T14:56:21;47.65;;;26.58;;
59336;SDS011;45115;52.002;4.686;2023-02-15T14:58:55;50.42;;;28.83;;